WZZ44QV LYBE-LICJ
Flight info
| Callsign | WZZ44QV |
|---|---|
| Flight time | 1h 39m |
| Altitude | 38000 |
| Route | VAL DCT TORTO DCT MOKUN DCT AIOSA/N0434F390 DCT AMANO DCT ROSAS |
| Aircraft | A20N/M-SDE1E2E3FGIJ1J4RWXY/LB1 |
Departure
| Time | 2026-04-29 17:36 |
|---|---|
| Airport | Belgrade Nikola Tesla Airport (LYBE) |
Arrival
| Time | 2026-04-29 19:15 |
|---|---|
| Airport | Falcone–Borsellino Airport (LICJ) |
| Time | Latitude | Longitude | Altitude | Speed | Heading |
|---|---|---|---|---|---|
| 2026-04-29 17:10 | 44.81896 | 20.29238 | 326 ft | 0 kts | 290° |
| 2026-04-29 17:23 | 44.81895 | 20.29242 | 326 ft | 2 kts | 290° |
| 2026-04-29 17:23 | 44.81889 | 20.29263 | 323 ft | 2 kts | 294° |
| 2026-04-29 17:24 | 44.81881 | 20.29284 | 325 ft | 2 kts | 301° |
| 2026-04-29 17:24 | 44.81872 | 20.29303 | 324 ft | 2 kts | 319° |
| 2026-04-29 17:24 | 44.81857 | 20.29312 | 327 ft | 2 kts | 20° |
| 2026-04-29 17:24 | 44.81850 | 20.29307 | 325 ft | 0 kts | 32° |
| 2026-04-29 17:29 | 44.81879 | 20.29332 | 326 ft | 12 kts | 32° |
| 2026-04-29 17:29 | 44.81966 | 20.29411 | 325 ft | 17 kts | 32° |
| 2026-04-29 17:30 | 44.82077 | 20.29510 | 327 ft | 20 kts | 32° |
| 2026-04-29 17:30 | 44.82117 | 20.29569 | 328 ft | 10 kts | 89° |
| 2026-04-29 17:30 | 44.82074 | 20.29690 | 327 ft | 16 kts | 125° |
| 2026-04-29 17:30 | 44.82008 | 20.29840 | 326 ft | 19 kts | 121° |
| 2026-04-29 17:31 | 44.81933 | 20.30013 | 329 ft | 22 kts | 122° |
| 2026-04-29 17:31 | 44.81847 | 20.30200 | 329 ft | 24 kts | 123° |
| 2026-04-29 17:31 | 44.81756 | 20.30403 | 331 ft | 25 kts | 122° |
| 2026-04-29 17:31 | 44.81660 | 20.30620 | 330 ft | 27 kts | 122° |
| 2026-04-29 17:32 | 44.81558 | 20.30850 | 331 ft | 28 kts | 122° |
| 2026-04-29 17:32 | 44.81451 | 20.31089 | 332 ft | 29 kts | 122° |
| 2026-04-29 17:32 | 44.81345 | 20.31332 | 332 ft | 29 kts | 121° |
| 2026-04-29 17:32 | 44.81237 | 20.31582 | 333 ft | 30 kts | 121° |
| 2026-04-29 17:33 | 44.81124 | 20.31833 | 336 ft | 31 kts | 122° |
| 2026-04-29 17:33 | 44.81017 | 20.32075 | 338 ft | 22 kts | 122° |
| 2026-04-29 17:33 | 44.80996 | 20.32200 | 335 ft | 11 kts | 71° |
| 2026-04-29 17:33 | 44.81062 | 20.32279 | 339 ft | 15 kts | 28° |
| 2026-04-29 17:34 | 44.81133 | 20.32298 | 336 ft | 11 kts | 2° |
| 2026-04-29 17:34 | 44.81222 | 20.32283 | 338 ft | 14 kts | 336° |
| 2026-04-29 17:34 | 44.81268 | 20.32216 | 337 ft | 0 kts | 305° |
| 2026-04-29 17:35 | 44.81401 | 20.31923 | 337 ft | 72 kts | 302° |
| 2026-04-29 17:35 | 44.81950 | 20.30681 | 331 ft | 146 kts | 302° |
| 2026-04-29 17:35 | 44.82509 | 20.29438 | 775 ft | 151 kts | 301° |
| 2026-04-29 17:36 | 44.82976 | 20.28124 | 1372 ft | 151 kts | 280° |
| 2026-04-29 17:36 | 44.82871 | 20.26669 | 1946 ft | 156 kts | 244° |
| 2026-04-29 17:36 | 44.82142 | 20.25440 | 2426 ft | 174 kts | 224° |
| 2026-04-29 17:36 | 44.81211 | 20.24199 | 2967 ft | 195 kts | 223° |
| 2026-04-29 17:37 | 44.80158 | 20.22802 | 3542 ft | 219 kts | 223° |
| 2026-04-29 17:37 | 44.79001 | 20.21254 | 4259 ft | 238 kts | 224° |
| 2026-04-29 17:37 | 44.77782 | 20.19610 | 5143 ft | 245 kts | 224° |
| 2026-04-29 17:37 | 44.76543 | 20.17931 | 5581 ft | 249 kts | 224° |
| 2026-04-29 17:38 | 44.75296 | 20.16238 | 5762 ft | 250 kts | 224° |
| 2026-04-29 17:38 | 44.74046 | 20.14541 | 5820 ft | 250 kts | 224° |
| 2026-04-29 17:38 | 44.72797 | 20.12847 | 5811 ft | 249 kts | 224° |
| 2026-04-29 17:38 | 44.71549 | 20.11155 | 5818 ft | 249 kts | 224° |
| 2026-04-29 17:39 | 44.70316 | 20.09485 | 5812 ft | 249 kts | 224° |
| 2026-04-29 17:39 | 44.69067 | 20.07794 | 5816 ft | 249 kts | 224° |
| 2026-04-29 17:39 | 44.67771 | 20.06176 | 5824 ft | 251 kts | 216° |
| 2026-04-29 17:39 | 44.66232 | 20.04999 | 6095 ft | 254 kts | 201° |
| 2026-04-29 17:40 | 44.64516 | 20.04139 | 6689 ft | 271 kts | 200° |
| 2026-04-29 17:40 | 44.62728 | 20.03213 | 7663 ft | 276 kts | 200° |
| 2026-04-29 17:40 | 44.60919 | 20.02265 | 8702 ft | 280 kts | 201° |
| 2026-04-29 17:40 | 44.59078 | 20.01300 | 9702 ft | 284 kts | 200° |
| 2026-04-29 17:41 | 44.57206 | 20.00323 | 10667 ft | 289 kts | 200° |
| 2026-04-29 17:41 | 44.55308 | 19.99334 | 11638 ft | 293 kts | 200° |
| 2026-04-29 17:41 | 44.53381 | 19.98333 | 12560 ft | 298 kts | 200° |
| 2026-04-29 17:41 | 44.51425 | 19.97317 | 13461 ft | 302 kts | 200° |
| 2026-04-29 17:42 | 44.49445 | 19.96290 | 14333 ft | 306 kts | 200° |
| 2026-04-29 17:42 | 44.47432 | 19.95247 | 15183 ft | 310 kts | 200° |
| 2026-04-29 17:42 | 44.45394 | 19.94192 | 15999 ft | 314 kts | 200° |
| 2026-04-29 17:42 | 44.43331 | 19.93124 | 16799 ft | 318 kts | 200° |
| 2026-04-29 17:43 | 44.41238 | 19.92042 | 17569 ft | 323 kts | 200° |
| 2026-04-29 17:43 | 44.39120 | 19.90948 | 18324 ft | 326 kts | 200° |
| 2026-04-29 17:43 | 44.36976 | 19.89841 | 19047 ft | 331 kts | 200° |
| 2026-04-29 17:43 | 44.34805 | 19.88722 | 19773 ft | 334 kts | 200° |
| 2026-04-29 17:44 | 44.32595 | 19.87648 | 20467 ft | 338 kts | 196° |
| 2026-04-29 17:44 | 44.30277 | 19.86977 | 21130 ft | 343 kts | 189° |
| 2026-04-29 17:44 | 44.27858 | 19.86458 | 21394 ft | 360 kts | 189° |
| 2026-04-29 17:44 | 44.25314 | 19.85903 | 21570 ft | 379 kts | 189° |
| 2026-04-29 17:45 | 44.22654 | 19.85317 | 21746 ft | 396 kts | 189° |
| 2026-04-29 17:45 | 44.19901 | 19.84709 | 22214 ft | 403 kts | 189° |
| 2026-04-29 17:45 | 44.17152 | 19.84101 | 22822 ft | 407 kts | 189° |
| 2026-04-29 17:45 | 44.14341 | 19.83481 | 23355 ft | 412 kts | 189° |
| 2026-04-29 17:46 | 44.11498 | 19.82853 | 23991 ft | 414 kts | 189° |
| 2026-04-29 17:46 | 44.08635 | 19.82222 | 24520 ft | 419 kts | 189° |
| 2026-04-29 17:46 | 44.05751 | 19.81588 | 25084 ft | 422 kts | 189° |
| 2026-04-29 17:46 | 44.02841 | 19.80946 | 25610 ft | 425 kts | 189° |
| 2026-04-29 17:47 | 43.99905 | 19.80298 | 26137 ft | 428 kts | 189° |
| 2026-04-29 17:47 | 43.96950 | 19.79647 | 26574 ft | 433 kts | 189° |
| 2026-04-29 17:47 | 43.93957 | 19.78990 | 27035 ft | 436 kts | 189° |
| 2026-04-29 17:47 | 43.90948 | 19.78331 | 27468 ft | 440 kts | 189° |
| 2026-04-29 17:48 | 43.87924 | 19.77669 | 27989 ft | 441 kts | 189° |
| 2026-04-29 17:48 | 43.84883 | 19.77005 | 28377 ft | 444 kts | 189° |
| 2026-04-29 17:48 | 43.81814 | 19.76335 | 28770 ft | 447 kts | 189° |
| 2026-04-29 17:48 | 43.78730 | 19.75662 | 29173 ft | 450 kts | 189° |
| 2026-04-29 17:49 | 43.75669 | 19.74996 | 29518 ft | 453 kts | 189° |
| 2026-04-29 17:49 | 43.72542 | 19.74315 | 29818 ft | 457 kts | 189° |
| 2026-04-29 17:49 | 43.69427 | 19.73384 | 30198 ft | 459 kts | 197° |
| 2026-04-29 17:49 | 43.66445 | 19.71799 | 30512 ft | 462 kts | 206° |
| 2026-04-29 17:50 | 43.63668 | 19.69563 | 30880 ft | 464 kts | 215° |
| 2026-04-29 17:50 | 43.61085 | 19.66868 | 31286 ft | 465 kts | 218° |
| 2026-04-29 17:50 | 43.58518 | 19.64155 | 31741 ft | 464 kts | 217° |
| 2026-04-29 17:50 | 43.55958 | 19.61462 | 32224 ft | 463 kts | 217° |
| 2026-04-29 17:51 | 43.53393 | 19.58774 | 32664 ft | 462 kts | 217° |
| 2026-04-29 17:51 | 43.50842 | 19.56107 | 33212 ft | 458 kts | 217° |
| 2026-04-29 17:51 | 43.48290 | 19.53443 | 33457 ft | 462 kts | 217° |
| 2026-04-29 17:51 | 43.45726 | 19.50770 | 33849 ft | 461 kts | 217° |
| 2026-04-29 17:52 | 43.43175 | 19.48113 | 34281 ft | 460 kts | 217° |
| 2026-04-29 17:52 | 43.41482 | 19.46351 | 34490 ft | 460 kts | 217° |
| 2026-04-29 17:52 | 43.38067 | 19.42801 | 34960 ft | 460 kts | 217° |
| 2026-04-29 17:52 | 43.35516 | 19.40153 | 35332 ft | 458 kts | 217° |
| 2026-04-29 17:53 | 43.32977 | 19.37520 | 35736 ft | 456 kts | 217° |
| 2026-04-29 17:53 | 43.30483 | 19.34935 | 36100 ft | 454 kts | 217° |
| 2026-04-29 17:53 | 43.27958 | 19.32323 | 36387 ft | 454 kts | 217° |
| 2026-04-29 17:53 | 43.25432 | 19.29711 | 36642 ft | 455 kts | 217° |
| 2026-04-29 17:54 | 43.22895 | 19.27090 | 36810 ft | 457 kts | 217° |
| 2026-04-29 17:54 | 43.20351 | 19.24466 | 37062 ft | 458 kts | 217° |
| 2026-04-29 17:54 | 43.17811 | 19.21849 | 37406 ft | 455 kts | 217° |
| 2026-04-29 17:54 | 43.15268 | 19.19231 | 37582 ft | 457 kts | 217° |
| 2026-04-29 17:55 | 43.12725 | 19.16616 | 37782 ft | 458 kts | 217° |
| 2026-04-29 17:55 | 43.10171 | 19.13993 | 37957 ft | 458 kts | 217° |
| 2026-04-29 17:55 | 43.07655 | 19.11411 | 37999 ft | 457 kts | 217° |
| 2026-04-29 17:56 | 43.02560 | 19.06190 | 37999 ft | 457 kts | 217° |
| 2026-04-29 17:56 | 42.97489 | 19.01006 | 38000 ft | 453 kts | 217° |
| 2026-04-29 17:57 | 42.92407 | 18.95821 | 38000 ft | 458 kts | 217° |
| 2026-04-29 17:57 | 42.87343 | 18.90666 | 38000 ft | 452 kts | 217° |
| 2026-04-29 17:58 | 42.82295 | 18.85538 | 38000 ft | 453 kts | 217° |
| 2026-04-29 17:58 | 42.77233 | 18.80406 | 38000 ft | 453 kts | 217° |
| 2026-04-29 17:59 | 42.72205 | 18.75319 | 38000 ft | 452 kts | 217° |
| 2026-04-29 17:59 | 42.67140 | 18.70206 | 37999 ft | 455 kts | 217° |
| 2026-04-29 18:00 | 42.62068 | 18.65095 | 37999 ft | 452 kts | 217° |
| 2026-04-29 18:00 | 42.56985 | 18.59985 | 38001 ft | 457 kts | 217° |
| 2026-04-29 18:01 | 42.51890 | 18.54873 | 38000 ft | 455 kts | 217° |
| 2026-04-29 18:01 | 42.47005 | 18.49488 | 38000 ft | 448 kts | 225° |
| 2026-04-29 18:02 | 42.43039 | 18.43031 | 38000 ft | 446 kts | 236° |
| 2026-04-29 18:02 | 42.39920 | 18.35769 | 38000 ft | 447 kts | 241° |
| 2026-04-29 18:03 | 42.36894 | 18.28473 | 38000 ft | 446 kts | 240° |
| 2026-04-29 18:03 | 42.33840 | 18.21167 | 38000 ft | 446 kts | 240° |
| 2026-04-29 18:04 | 42.30778 | 18.13866 | 38000 ft | 446 kts | 240° |
| 2026-04-29 18:04 | 42.27712 | 18.06571 | 38000 ft | 446 kts | 240° |
| 2026-04-29 18:05 | 42.24640 | 17.99282 | 38000 ft | 446 kts | 240° |
| 2026-04-29 18:05 | 42.21566 | 17.92004 | 38000 ft | 446 kts | 240° |
| 2026-04-29 18:06 | 42.18484 | 17.84728 | 38000 ft | 446 kts | 240° |
| 2026-04-29 18:06 | 42.15398 | 17.77458 | 38001 ft | 446 kts | 240° |
| 2026-04-29 18:07 | 42.12308 | 17.70198 | 38000 ft | 446 kts | 240° |
| 2026-04-29 18:07 | 42.09232 | 17.62986 | 38001 ft | 446 kts | 240° |
| 2026-04-29 18:08 | 42.06136 | 17.55746 | 38001 ft | 446 kts | 240° |
| 2026-04-29 18:08 | 42.03032 | 17.48507 | 38001 ft | 446 kts | 240° |
| 2026-04-29 18:09 | 41.99925 | 17.41276 | 38001 ft | 446 kts | 240° |
| 2026-04-29 18:09 | 41.96815 | 17.34057 | 38000 ft | 446 kts | 240° |
| 2026-04-29 18:10 | 41.93638 | 17.26889 | 38001 ft | 446 kts | 236° |
| 2026-04-29 18:10 | 41.89788 | 17.20351 | 37999 ft | 446 kts | 227° |
| 2026-04-29 18:11 | 41.85560 | 17.14250 | 37999 ft | 446 kts | 227° |
| 2026-04-29 18:11 | 41.81348 | 17.08127 | 38000 ft | 447 kts | 227° |
| 2026-04-29 18:12 | 41.77135 | 17.02005 | 38000 ft | 447 kts | 227° |
| 2026-04-29 18:12 | 41.72919 | 16.95897 | 38000 ft | 447 kts | 227° |
| 2026-04-29 18:13 | 41.68725 | 16.89837 | 38001 ft | 447 kts | 227° |
| 2026-04-29 18:13 | 41.64499 | 16.83745 | 38001 ft | 447 kts | 227° |
| 2026-04-29 18:14 | 41.60267 | 16.77655 | 38001 ft | 447 kts | 227° |
| 2026-04-29 18:14 | 41.56723 | 16.72566 | 38001 ft | 447 kts | 227° |
| 2026-04-29 18:15 | 41.52507 | 16.66522 | 38002 ft | 447 kts | 227° |
| 2026-04-29 18:15 | 41.48271 | 16.60463 | 38001 ft | 447 kts | 227° |
| 2026-04-29 18:16 | 41.44035 | 16.54391 | 38001 ft | 447 kts | 227° |
| 2026-04-29 18:16 | 41.39801 | 16.48332 | 38001 ft | 447 kts | 227° |
| 2026-04-29 18:17 | 41.35554 | 16.42293 | 38000 ft | 447 kts | 227° |
| 2026-04-29 18:17 | 41.31301 | 16.36265 | 38000 ft | 447 kts | 227° |
| 2026-04-29 18:18 | 41.27045 | 16.30247 | 37998 ft | 447 kts | 227° |
| 2026-04-29 18:18 | 41.22787 | 16.24235 | 37995 ft | 447 kts | 227° |
| 2026-04-29 18:19 | 41.18525 | 16.18229 | 37992 ft | 447 kts | 227° |
| 2026-04-29 18:19 | 41.14260 | 16.12231 | 37987 ft | 447 kts | 227° |
| 2026-04-29 18:20 | 41.09993 | 16.06241 | 37986 ft | 447 kts | 227° |
| 2026-04-29 18:20 | 41.05718 | 16.00253 | 37992 ft | 447 kts | 227° |
| 2026-04-29 18:21 | 41.01438 | 15.94271 | 37990 ft | 447 kts | 227° |
| 2026-04-29 18:21 | 40.97151 | 15.88290 | 37992 ft | 448 kts | 227° |
| 2026-04-29 18:22 | 40.92863 | 15.82317 | 37990 ft | 448 kts | 226° |
| 2026-04-29 18:22 | 40.88557 | 15.76332 | 37980 ft | 449 kts | 226° |
| 2026-04-29 18:23 | 40.84274 | 15.70391 | 37990 ft | 449 kts | 226° |
| 2026-04-29 18:23 | 40.79963 | 15.64424 | 37989 ft | 450 kts | 226° |
| 2026-04-29 18:24 | 40.75630 | 15.58437 | 37999 ft | 453 kts | 226° |
| 2026-04-29 18:24 | 40.71290 | 15.52453 | 38000 ft | 449 kts | 226° |
| 2026-04-29 18:25 | 40.66957 | 15.46491 | 38000 ft | 452 kts | 226° |
| 2026-04-29 18:25 | 40.62624 | 15.40540 | 38001 ft | 450 kts | 226° |
| 2026-04-29 18:26 | 40.58299 | 15.34612 | 37998 ft | 447 kts | 226° |
| 2026-04-29 18:26 | 40.53982 | 15.28746 | 37998 ft | 449 kts | 226° |
| 2026-04-29 18:27 | 40.49604 | 15.22786 | 38001 ft | 452 kts | 226° |
| 2026-04-29 18:27 | 40.45287 | 15.16901 | 38001 ft | 447 kts | 226° |
| 2026-04-29 18:28 | 40.40939 | 15.10981 | 38002 ft | 453 kts | 226° |
| 2026-04-29 18:28 | 40.36604 | 15.05093 | 38001 ft | 446 kts | 226° |
| 2026-04-29 18:29 | 40.32307 | 14.99268 | 38000 ft | 448 kts | 226° |
| 2026-04-29 18:29 | 40.27953 | 14.93377 | 38000 ft | 446 kts | 226° |
| 2026-04-29 18:30 | 40.23651 | 14.87569 | 38000 ft | 447 kts | 226° |
| 2026-04-29 18:30 | 40.19325 | 14.81741 | 38001 ft | 447 kts | 226° |
| 2026-04-29 18:31 | 40.14986 | 14.75906 | 38000 ft | 447 kts | 226° |
| 2026-04-29 18:31 | 40.10654 | 14.70093 | 37999 ft | 447 kts | 226° |
| 2026-04-29 18:32 | 40.06317 | 14.64285 | 38000 ft | 447 kts | 226° |
| 2026-04-29 18:32 | 39.99797 | 14.55575 | 37999 ft | 447 kts | 226° |
| 2026-04-29 18:33 | 39.95456 | 14.49789 | 38000 ft | 447 kts | 226° |
| 2026-04-29 18:33 | 39.91107 | 14.44005 | 38000 ft | 447 kts | 226° |
| 2026-04-29 18:34 | 39.87489 | 14.39202 | 38000 ft | 447 kts | 225° |
| 2026-04-29 18:34 | 39.82431 | 14.32499 | 38000 ft | 447 kts | 225° |
| 2026-04-29 18:35 | 39.78071 | 14.26734 | 38000 ft | 447 kts | 225° |
| 2026-04-29 18:35 | 39.73711 | 14.20980 | 38001 ft | 447 kts | 225° |
| 2026-04-29 18:36 | 39.69346 | 14.15230 | 38001 ft | 447 kts | 225° |
| 2026-04-29 18:36 | 39.64977 | 14.09487 | 38001 ft | 447 kts | 225° |
| 2026-04-29 18:37 | 39.60605 | 14.03749 | 38001 ft | 447 kts | 225° |
| 2026-04-29 18:37 | 39.56238 | 13.98030 | 37743 ft | 445 kts | 225° |
| 2026-04-29 18:38 | 39.54061 | 13.95184 | 37115 ft | 446 kts | 225° |
| 2026-04-29 18:38 | 39.51895 | 13.92353 | 36262 ft | 451 kts | 225° |
| 2026-04-29 18:38 | 39.49675 | 13.89453 | 35271 ft | 457 kts | 225° |
| 2026-04-29 18:38 | 39.47422 | 13.86512 | 34266 ft | 462 kts | 225° |
| 2026-04-29 18:39 | 39.45150 | 13.83570 | 33270 ft | 463 kts | 223° |
| 2026-04-29 18:39 | 39.42649 | 13.80930 | 32160 ft | 465 kts | 214° |
| 2026-04-29 18:39 | 39.39860 | 13.78794 | 31009 ft | 468 kts | 206° |
| 2026-04-29 18:39 | 39.36837 | 13.77219 | 29924 ft | 471 kts | 199° |
| 2026-04-29 18:40 | 39.33738 | 13.75842 | 28949 ft | 471 kts | 199° |
| 2026-04-29 18:40 | 39.30656 | 13.74455 | 28209 ft | 466 kts | 199° |
| 2026-04-29 18:40 | 39.27611 | 13.73079 | 27484 ft | 460 kts | 199° |
| 2026-04-29 18:40 | 39.24605 | 13.71719 | 26755 ft | 455 kts | 199° |
| 2026-04-29 18:41 | 39.15780 | 13.67733 | 24579 ft | 441 kts | 199° |
| 2026-04-29 18:41 | 39.12904 | 13.66438 | 23878 ft | 436 kts | 199° |
| 2026-04-29 18:42 | 39.10056 | 13.65156 | 23163 ft | 431 kts | 199° |
| 2026-04-29 18:42 | 39.07246 | 13.63892 | 22466 ft | 427 kts | 199° |
| 2026-04-29 18:42 | 39.04449 | 13.62635 | 21764 ft | 422 kts | 199° |
| 2026-04-29 18:42 | 39.01689 | 13.61396 | 21067 ft | 418 kts | 199° |
| 2026-04-29 18:43 | 38.99085 | 13.60228 | 20405 ft | 414 kts | 199° |
| 2026-04-29 18:43 | 38.96368 | 13.59013 | 19389 ft | 413 kts | 201° |
| 2026-04-29 18:43 | 38.93680 | 13.57821 | 18897 ft | 403 kts | 201° |
| 2026-04-29 18:43 | 38.91044 | 13.56643 | 18276 ft | 398 kts | 201° |
| 2026-04-29 18:44 | 38.88437 | 13.55474 | 17525 ft | 395 kts | 201° |
| 2026-04-29 18:44 | 38.85851 | 13.54333 | 16786 ft | 392 kts | 199° |
| 2026-04-29 18:44 | 38.83212 | 13.53512 | 16095 ft | 390 kts | 192° |
| 2026-04-29 18:44 | 38.80547 | 13.52919 | 15401 ft | 387 kts | 192° |
| 2026-04-29 18:45 | 38.77910 | 13.52327 | 14725 ft | 383 kts | 192° |
| 2026-04-29 18:45 | 38.75329 | 13.51744 | 14088 ft | 380 kts | 192° |
| 2026-04-29 18:45 | 38.72730 | 13.51155 | 13420 ft | 377 kts | 192° |
| 2026-04-29 18:45 | 38.70168 | 13.50575 | 12763 ft | 372 kts | 192° |
| 2026-04-29 18:46 | 38.67631 | 13.50001 | 12124 ft | 368 kts | 192° |
| 2026-04-29 18:46 | 38.65120 | 13.49433 | 11505 ft | 365 kts | 192° |
| 2026-04-29 18:46 | 38.62645 | 13.48874 | 10964 ft | 358 kts | 192° |
| 2026-04-29 18:46 | 38.60201 | 13.48323 | 10474 ft | 352 kts | 192° |
| 2026-04-29 18:47 | 38.57845 | 13.47793 | 10316 ft | 335 kts | 192° |
| 2026-04-29 18:47 | 38.55603 | 13.47288 | 10172 ft | 319 kts | 192° |
| 2026-04-29 18:47 | 38.53468 | 13.46806 | 10048 ft | 304 kts | 192° |
| 2026-04-29 18:47 | 38.51429 | 13.46347 | 9929 ft | 290 kts | 192° |
| 2026-04-29 18:48 | 38.49486 | 13.45908 | 9810 ft | 277 kts | 192° |
| 2026-04-29 18:48 | 38.47632 | 13.45490 | 9701 ft | 264 kts | 193° |
| 2026-04-29 18:48 | 38.45867 | 13.45092 | 9597 ft | 252 kts | 193° |
| 2026-04-29 18:48 | 38.44182 | 13.44712 | 9496 ft | 240 kts | 193° |
| 2026-04-29 18:49 | 38.42579 | 13.44351 | 9400 ft | 228 kts | 193° |
| 2026-04-29 18:49 | 38.41040 | 13.44004 | 9192 ft | 223 kts | 193° |
| 2026-04-29 18:49 | 38.39519 | 13.43659 | 8881 ft | 222 kts | 193° |
| 2026-04-29 18:49 | 38.38021 | 13.43319 | 8595 ft | 221 kts | 192° |
| 2026-04-29 18:50 | 38.36507 | 13.42977 | 8299 ft | 220 kts | 192° |
| 2026-04-29 18:50 | 38.35003 | 13.42639 | 8016 ft | 219 kts | 192° |
| 2026-04-29 18:50 | 38.33511 | 13.42300 | 7755 ft | 217 kts | 191° |
| 2026-04-29 18:50 | 38.32029 | 13.41966 | 7490 ft | 215 kts | 191° |
| 2026-04-29 18:51 | 38.30672 | 13.41248 | 7218 ft | 213 kts | 220° |
| 2026-04-29 18:51 | 38.29703 | 13.39800 | 6966 ft | 217 kts | 232° |
| 2026-04-29 18:51 | 38.28718 | 13.38354 | 6702 ft | 215 kts | 224° |
| 2026-04-29 18:51 | 38.27686 | 13.36995 | 6467 ft | 213 kts | 226° |
| 2026-04-29 18:52 | 38.26763 | 13.35514 | 6184 ft | 214 kts | 233° |
| 2026-04-29 18:52 | 38.25993 | 13.33891 | 5892 ft | 215 kts | 239° |
| 2026-04-29 18:52 | 38.25352 | 13.32211 | 5700 ft | 208 kts | 243° |
| 2026-04-29 18:52 | 38.24799 | 13.30595 | 5463 ft | 194 kts | 243° |
| 2026-04-29 18:53 | 38.24272 | 13.29031 | 5010 ft | 192 kts | 243° |
| 2026-04-29 18:53 | 38.23752 | 13.27480 | 4687 ft | 183 kts | 243° |
| 2026-04-29 18:53 | 38.23289 | 13.26095 | 4551 ft | 160 kts | 243° |
| 2026-04-29 18:53 | 38.22870 | 13.24850 | 4352 ft | 148 kts | 242° |
| 2026-04-29 18:54 | 38.22483 | 13.23695 | 4163 ft | 135 kts | 242° |
| 2026-04-29 18:54 | 38.22115 | 13.22604 | 3859 ft | 134 kts | 242° |
| 2026-04-29 18:54 | 38.21743 | 13.21516 | 3533 ft | 134 kts | 242° |
| 2026-04-29 18:54 | 38.21349 | 13.20416 | 3132 ft | 140 kts | 240° |
| 2026-04-29 18:55 | 38.20915 | 13.19292 | 2741 ft | 142 kts | 240° |
| 2026-04-29 18:55 | 38.20496 | 13.18149 | 2364 ft | 142 kts | 242° |
| 2026-04-29 18:55 | 38.20104 | 13.16988 | 1968 ft | 144 kts | 245° |
| 2026-04-29 18:55 | 38.19736 | 13.15785 | 1455 ft | 150 kts | 248° |
| 2026-04-29 18:56 | 38.19364 | 13.14565 | 1075 ft | 148 kts | 247° |
| 2026-04-29 18:56 | 38.18988 | 13.13355 | 717 ft | 142 kts | 248° |
| 2026-04-29 18:56 | 38.18624 | 13.12216 | 401 ft | 138 kts | 248° |
| 2026-04-29 18:56 | 38.18248 | 13.11082 | 84 ft | 133 kts | 249° |
| 2026-04-29 18:57 | 38.17946 | 13.10090 | 99 ft | 113 kts | 245° |
| 2026-04-29 18:57 | 38.17566 | 13.09031 | 484 ft | 142 kts | 246° |
| 2026-04-29 18:57 | 38.17159 | 13.07856 | 1155 ft | 146 kts | 244° |
| 2026-04-29 18:57 | 38.16756 | 13.06720 | 2033 ft | 138 kts | 244° |
| 2026-04-29 18:58 | 38.16377 | 13.05546 | 2534 ft | 152 kts | 246° |
| 2026-04-29 18:58 | 38.16151 | 13.04122 | 2889 ft | 185 kts | 274° |
| 2026-04-29 18:58 | 38.16719 | 13.02488 | 3004 ft | 216 kts | 311° |
| 2026-04-29 18:58 | 38.17930 | 13.01344 | 2999 ft | 219 kts | 332° |
| 2026-04-29 18:59 | 38.19351 | 13.00644 | 2999 ft | 219 kts | 343° |
| 2026-04-29 18:59 | 38.20803 | 13.00029 | 2967 ft | 222 kts | 343° |
| 2026-04-29 18:59 | 38.22309 | 12.99759 | 3005 ft | 220 kts | 3° |
| 2026-04-29 18:59 | 38.23832 | 12.99816 | 3000 ft | 218 kts | 4° |
| 2026-04-29 19:00 | 38.25346 | 12.99885 | 3002 ft | 218 kts | 4° |
| 2026-04-29 19:00 | 38.26859 | 12.99956 | 3002 ft | 217 kts | 6° |
| 2026-04-29 19:00 | 38.28257 | 13.00579 | 3003 ft | 214 kts | 40° |
| 2026-04-29 19:00 | 38.29133 | 13.02031 | 3013 ft | 211 kts | 65° |
| 2026-04-29 19:01 | 38.29780 | 13.03735 | 3006 ft | 211 kts | 67° |
| 2026-04-29 19:01 | 38.30406 | 13.05416 | 3004 ft | 210 kts | 67° |
| 2026-04-29 19:01 | 38.31033 | 13.07097 | 3005 ft | 210 kts | 67° |
| 2026-04-29 19:01 | 38.31659 | 13.08776 | 3026 ft | 210 kts | 67° |
| 2026-04-29 19:02 | 38.32288 | 13.10463 | 3028 ft | 211 kts | 66° |
| 2026-04-29 19:02 | 38.32704 | 13.11579 | 3027 ft | 210 kts | 67° |
| 2026-04-29 19:02 | 38.33536 | 13.13808 | 3020 ft | 211 kts | 67° |
| 2026-04-29 19:02 | 38.34177 | 13.15502 | 3018 ft | 211 kts | 67° |
| 2026-04-29 19:03 | 38.34820 | 13.17186 | 3021 ft | 212 kts | 67° |
| 2026-04-29 19:03 | 38.35466 | 13.18871 | 3021 ft | 211 kts | 66° |
| 2026-04-29 19:03 | 38.35892 | 13.19991 | 3017 ft | 212 kts | 67° |
| 2026-04-29 19:03 | 38.36539 | 13.21679 | 3027 ft | 212 kts | 66° |
| 2026-04-29 19:04 | 38.37181 | 13.23370 | 3020 ft | 212 kts | 66° |
| 2026-04-29 19:04 | 38.37826 | 13.25082 | 3035 ft | 214 kts | 66° |
| 2026-04-29 19:04 | 38.38475 | 13.26797 | 3030 ft | 214 kts | 66° |
| 2026-04-29 19:04 | 38.39120 | 13.28509 | 3034 ft | 214 kts | 66° |
| 2026-04-29 19:05 | 38.39763 | 13.30223 | 3037 ft | 215 kts | 67° |
| 2026-04-29 19:05 | 38.40393 | 13.31942 | 3038 ft | 214 kts | 69° |
| 2026-04-29 19:05 | 38.40806 | 13.33740 | 3032 ft | 211 kts | 92° |
| 2026-04-29 19:05 | 38.40593 | 13.35571 | 3026 ft | 208 kts | 108° |
| 2026-04-29 19:06 | 38.39834 | 13.37089 | 3034 ft | 205 kts | 140° |
| 2026-04-29 19:06 | 38.38704 | 13.38203 | 3032 ft | 204 kts | 144° |
| 2026-04-29 19:06 | 38.36430 | 13.40357 | 3024 ft | 206 kts | 144° |
| 2026-04-29 19:07 | 38.35199 | 13.41281 | 3028 ft | 204 kts | 153° |
| 2026-04-29 19:07 | 38.34347 | 13.41822 | 3034 ft | 202 kts | 154° |
| 2026-04-29 19:07 | 38.32669 | 13.42883 | 3056 ft | 204 kts | 154° |
| 2026-04-29 19:07 | 38.31403 | 13.43679 | 3031 ft | 203 kts | 154° |
| 2026-04-29 19:08 | 38.30131 | 13.44476 | 3035 ft | 204 kts | 154° |
| 2026-04-29 19:08 | 38.28878 | 13.45264 | 3027 ft | 191 kts | 154° |
| 2026-04-29 19:08 | 38.27669 | 13.45736 | 3031 ft | 182 kts | 180° |
| 2026-04-29 19:08 | 38.26495 | 13.45163 | 3034 ft | 187 kts | 219° |
| 2026-04-29 19:09 | 38.25844 | 13.43707 | 3049 ft | 204 kts | 251° |
| 2026-04-29 19:09 | 38.25508 | 13.42010 | 3031 ft | 191 kts | 254° |
| 2026-04-29 19:09 | 38.25332 | 13.40326 | 3034 ft | 196 kts | 273° |
| 2026-04-29 19:09 | 38.25459 | 13.38595 | 3030 ft | 196 kts | 274° |
| 2026-04-29 19:10 | 38.25595 | 13.36880 | 3029 ft | 191 kts | 274° |
| 2026-04-29 19:10 | 38.25733 | 13.35235 | 3033 ft | 186 kts | 274° |
| 2026-04-29 19:10 | 38.25670 | 13.33611 | 3036 ft | 182 kts | 253° |
| 2026-04-29 19:10 | 38.25285 | 13.32086 | 3040 ft | 179 kts | 246° |
| 2026-04-29 19:11 | 38.24805 | 13.30622 | 3024 ft | 181 kts | 244° |
| 2026-04-29 19:11 | 38.24309 | 13.29148 | 2867 ft | 181 kts | 244° |
| 2026-04-29 19:11 | 38.23819 | 13.27688 | 2638 ft | 180 kts | 244° |
| 2026-04-29 19:11 | 38.23325 | 13.26213 | 2399 ft | 181 kts | 244° |
| 2026-04-29 19:12 | 38.22835 | 13.24751 | 2165 ft | 181 kts | 244° |
| 2026-04-29 19:12 | 38.22342 | 13.23280 | 1923 ft | 179 kts | 244° |
| 2026-04-29 19:12 | 38.21849 | 13.21814 | 1693 ft | 183 kts | 244° |
| 2026-04-29 19:12 | 38.21524 | 13.20840 | 1526 ft | 180 kts | 244° |
| 2026-04-29 19:13 | 38.20873 | 13.18903 | 1224 ft | 177 kts | 245° |
| 2026-04-29 19:13 | 38.20393 | 13.17474 | 991 ft | 175 kts | 246° |
| 2026-04-29 19:13 | 38.19911 | 13.16036 | 762 ft | 170 kts | 246° |
| 2026-04-29 19:13 | 38.19481 | 13.14756 | 557 ft | 146 kts | 247° |
| 2026-04-29 19:14 | 38.19103 | 13.13632 | 360 ft | 132 kts | 247° |
| 2026-04-29 19:14 | 38.18741 | 13.12558 | 209 ft | 133 kts | 247° |
| 2026-04-29 19:14 | 38.18387 | 13.11482 | 85 ft | 128 kts | 248° |
| 2026-04-29 19:14 | 38.18075 | 13.10577 | 63 ft | 84 kts | 246° |
| 2026-04-29 19:15 | 38.17903 | 13.10046 | 68 ft | 60 kts | 249° |
| 2026-04-29 19:15 | 38.17743 | 13.09575 | 62 ft | 56 kts | 247° |
| 2026-04-29 19:15 | 38.17620 | 13.09211 | 68 ft | 18 kts | 248° |
| 2026-04-29 19:15 | 38.17650 | 13.09157 | 70 ft | 10 kts | 6° |
| 2026-04-29 19:16 | 38.17745 | 13.09197 | 65 ft | 23 kts | 23° |
| 2026-04-29 19:16 | 38.17870 | 13.09340 | 62 ft | 27 kts | 76° |
| 2026-04-29 19:16 | 38.17943 | 13.09544 | 64 ft | 27 kts | 68° |
| 2026-04-29 19:16 | 38.18015 | 13.09771 | 60 ft | 24 kts | 66° |
| 2026-04-29 19:17 | 38.18056 | 13.09888 | 58 ft | 15 kts | 65° |
| 2026-04-29 19:17 | 38.18113 | 13.10055 | 63 ft | 24 kts | 67° |
| 2026-04-29 19:17 | 38.18182 | 13.10264 | 57 ft | 27 kts | 68° |
| 2026-04-29 19:17 | 38.18243 | 13.10440 | 61 ft | 19 kts | 67° |
| 2026-04-29 19:18 | 38.18300 | 13.10613 | 63 ft | 23 kts | 67° |
| 2026-04-29 19:18 | 38.18342 | 13.10743 | 61 ft | 25 kts | 67° |
| 2026-04-29 19:18 | 38.18421 | 13.10934 | 62 ft | 11 kts | 22° |
| 2026-04-29 19:18 | 38.18472 | 13.10885 | 63 ft | 12 kts | 283° |
| 2026-04-29 19:19 | 38.18497 | 13.10768 | 60 ft | 15 kts | 289° |
| 2026-04-29 19:19 | 38.18476 | 13.10634 | 57 ft | 17 kts | 249° |
| 2026-04-29 19:19 | 38.18450 | 13.10533 | 60 ft | 7 kts | 285° |
| 2026-04-29 19:19 | 38.18496 | 13.10495 | 59 ft | 6 kts | 333° |
| 2026-04-29 19:20 | 38.18515 | 13.10487 | 60 ft | 0 kts | 337° |